Impacts METAR Board
IDs:

KPHX - Phoenix/Sky Harbor, AZ, US

Updated at: 1500 UTC 23 Jun 2018
Potential Impact None Slight Moderate High
Time 23/03Z 23/04Z 23/05Z 23/06Z 23/07Z 23/08Z 23/09Z 23/10Z 23/11Z 23/12Z 23/13Z 23/14Z 23/15Z
Temp105 102 100 98 97 95 92 90 86 84 83 85 88
Dewpt27 29 30 37 42 42 43 44 46 45 43 44 45
Altim29.61 29.63 29.65 29.66 29.66 29.66 29.67 29.68 29.68 29.70 29.73 29.75 29.77
VIS10 10 10 10 10 10 10 10 10 10 10 10 10
CIG-- -- -- -- -- -- -- -- -- -- -- -- --
CoverFEWFEWCLRCLRCLRCLRCLRCLRCLRFEWFEWCLRCLR
FltCatVFRVFRVFRVFRVFRVFRVFRVFRVFRVFRVFRVFRVFR
WX--------------------------
WDir2402502602602803003000110110100110
WSpd5 6 7 8 9 5 3 0 0 5 9 5 9
WGst-- -- -- -- -- -- -- -- -- -- -- -- --
Raw hourly METARs
KPHX 230251Z COR 24005KT 10SM FEW210 41/M03 A2961 RMK AO2 SLP004 T04061028 56008 $
KPHX 230351Z 25006KT 10SM FEW210 39/M02 A2963 RMK AO2 SLP010 T03891017 $
KPHX 230451Z 26007KT 10SM CLR 38/M01 A2965 RMK AO2 SLP016 T03781011 $
KPHX 230551Z 26008KT 10SM CLR 37/03 A2966 RMK AO2 SLP018 T03670028 10439 20367 51014 $
KPHX 230651Z 28009KT 10SM CLR 36/06 A2966 RMK AO2 SLP020 T03610056 404390278 $
KPHX 230751Z 30005KT 10SM CLR 35/06 A2966 RMK AO2 SLP020 T03500056 $
KPHX 230851Z 03003KT 10SM CLR 33/06 A2967 RMK AO2 SLP023 T03330061 53005 $
KPHX 230951Z 00000KT 10SM CLR 32/07 A2968 RMK AO2 SLP026 T03220067 $
KPHX 231051Z 00000KT 10SM CLR 30/08 A2968 RMK AO2 SLP029 T03000078 $
KPHX 231151Z 11005KT 10SM FEW210 29/07 A2970 RMK AO2 SLP035 T02890072 10367 20289 53010 $
KPHX 231251Z 11009KT 10SM FEW270 28/06 A2973 RMK AO2 SLP044 T02830061 $
KPHX 231351Z 10005KT 10SM CLR 29/07 A2975 RMK AO2 SLP051 T02940067 $
KPHX 231451Z 11009KT 10SM CLR 31/07 A2977 RMK AO2 SLP060 T03110072 51024 $



Page loaded:  15:32 UTC  |   08:32 AM Pacific  |   09:32 AM Mountain  |   10:32 AM Central  |   11:32 AM Eastern

 

ADVISORIES

FORECASTS

FORECASTS

OBSERVATIONS

USER TOOLS

ABOUT US